sensor_id;sensor_type;location;lat;lon;timestamp;P1;durP1;ratioP1;P2;durP2;ratioP2
44810;SDS011;30526;52.184;4.476;2023-04-24T00:01:49;6.97;;;1.60;;
44810;SDS011;30526;52.184;4.476;2023-04-24T00:04:16;9.77;;;1.25;;
44810;SDS011;30526;52.184;4.476;2023-04-24T00:06:43;14.02;;;1.73;;
44810;SDS011;30526;52.184;4.476;2023-04-24T00:09:09;9.80;;;1.90;;
44810;SDS011;30526;52.184;4.476;2023-04-24T00:11:35;8.07;;;1.70;;
44810;SDS011;30526;52.184;4.476;2023-04-24T00:14:02;30.50;;;2.63;;
44810;SDS011;30526;52.184;4.476;2023-04-24T00:16:28;17.67;;;1.95;;
44810;SDS011;30526;52.184;4.476;2023-04-24T00:18:54;10.65;;;1.60;;
44810;SDS011;30526;52.184;4.476;2023-04-24T00:21:20;8.00;;;1.80;;
44810;SDS011;30526;52.184;4.476;2023-04-24T00:23:46;13.07;;;2.33;;
44810;SDS011;30526;52.184;4.476;2023-04-24T00:26:13;16.10;;;1.98;;
44810;SDS011;30526;52.184;4.476;2023-04-24T00:28:39;15.75;;;2.00;;
44810;SDS011;30526;52.184;4.476;2023-04-24T00:31:05;9.43;;;2.22;;
44810;SDS011;30526;52.184;4.476;2023-04-24T00:33:31;19.08;;;2.33;;
44810;SDS011;30526;52.184;4.476;2023-04-24T00:35:57;16.50;;;2.22;;
44810;SDS011;30526;52.184;4.476;2023-04-24T00:38:23;15.30;;;2.38;;
44810;SDS011;30526;52.184;4.476;2023-04-24T00:40:49;10.30;;;1.88;;
44810;SDS011;30526;52.184;4.476;2023-04-24T00:43:16;11.15;;;1.92;;
44810;SDS011;30526;52.184;4.476;2023-04-24T00:45:42;20.88;;;2.42;;
44810;SDS011;30526;52.184;4.476;2023-04-24T00:48:08;4.93;;;1.85;;
44810;SDS011;30526;52.184;4.476;2023-04-24T00:50:35;7.68;;;1.25;;
44810;SDS011;30526;52.184;4.476;2023-04-24T00:53:01;10.57;;;1.58;;
44810;SDS011;30526;52.184;4.476;2023-04-24T00:55:27;11.70;;;1.98;;
44810;SDS011;30526;52.184;4.476;2023-04-24T00:57:53;17.85;;;1.75;;
44810;SDS011;30526;52.184;4.476;2023-04-24T01:00:20;7.93;;;1.60;;
44810;SDS011;30526;52.184;4.476;2023-04-24T01:02:46;11.30;;;1.52;;
44810;SDS011;30526;52.184;4.476;2023-04-24T01:05:13;9.85;;;1.65;;
44810;SDS011;30526;52.184;4.476;2023-04-24T01:07:40;8.52;;;1.42;;
44810;SDS011;30526;52.184;4.476;2023-04-24T01:10:09;19.23;;;1.88;;
44810;SDS011;30526;52.184;4.476;2023-04-24T01:12:35;9.00;;;1.65;;
44810;SDS011;30526;52.184;4.476;2023-04-24T01:15:01;10.35;;;1.63;;
44810;SDS011;30526;52.184;4.476;2023-04-24T01:17:28;17.52;;;1.75;;
44810;SDS011;30526;52.184;4.476;2023-04-24T01:19:54;16.00;;;1.83;;
44810;SDS011;30526;52.184;4.476;2023-04-24T01:22:24;14.90;;;2.08;;
44810;SDS011;30526;52.184;4.476;2023-04-24T01:24:51;9.10;;;1.95;;
44810;SDS011;30526;52.184;4.476;2023-04-24T01:27:18;9.85;;;3.42;;
44810;SDS011;30526;52.184;4.476;2023-04-24T01:29:44;7.45;;;1.45;;
44810;SDS011;30526;52.184;4.476;2023-04-24T01:32:12;6.78;;;1.55;;
44810;SDS011;30526;52.184;4.476;2023-04-24T01:34:39;14.80;;;2.45;;
44810;SDS011;30526;52.184;4.476;2023-04-24T01:37:05;7.97;;;1.83;;
44810;SDS011;30526;52.184;4.476;2023-04-24T01:39:31;14.50;;;1.90;;
44810;SDS011;30526;52.184;4.476;2023-04-24T01:41:58;12.57;;;2.20;;
44810;SDS011;30526;52.184;4.476;2023-04-24T01:44:26;14.25;;;1.88;;
44810;SDS011;30526;52.184;4.476;2023-04-24T01:46:52;16.02;;;1.90;;
44810;SDS011;30526;52.184;4.476;2023-04-24T01:49:19;3.30;;;1.30;;
44810;SDS011;30526;52.184;4.476;2023-04-24T01:51:45;8.68;;;1.80;;
44810;SDS011;30526;52.184;4.476;2023-04-24T01:54:12;5.28;;;1.80;;
44810;SDS011;30526;52.184;4.476;2023-04-24T01:56:40;15.57;;;2.05;;
44810;SDS011;30526;52.184;4.476;2023-04-24T01:59:07;12.63;;;1.80;;
44810;SDS011;30526;52.184;4.476;2023-04-24T02:04:04;6.85;;;1.67;;
44810;SDS011;30526;52.184;4.476;2023-04-24T02:06:30;9.80;;;1.70;;
44810;SDS011;30526;52.184;4.476;2023-04-24T02:08:57;5.15;;;1.55;;
44810;SDS011;30526;52.184;4.476;2023-04-24T02:11:23;3.92;;;1.40;;
44810;SDS011;30526;52.184;4.476;2023-04-24T02:13:49;6.07;;;1.83;;
44810;SDS011;30526;52.184;4.476;2023-04-24T02:16:16;4.50;;;1.10;;
44810;SDS011;30526;52.184;4.476;2023-04-24T02:18:42;4.00;;;1.48;;
44810;SDS011;30526;52.184;4.476;2023-04-24T02:21:09;5.95;;;1.38;;
44810;SDS011;30526;52.184;4.476;2023-04-24T02:23:35;8.32;;;1.35;;
44810;SDS011;30526;52.184;4.476;2023-04-24T02:26:01;8.32;;;1.50;;
44810;SDS011;30526;52.184;4.476;2023-04-24T02:28:27;10.18;;;1.60;;
44810;SDS011;30526;52.184;4.476;2023-04-24T02:30:53;8.07;;;1.58;;
44810;SDS011;30526;52.184;4.476;2023-04-24T02:33:19;4.13;;;1.10;;
44810;SDS011;30526;52.184;4.476;2023-04-24T02:35:45;4.57;;;1.52;;
44810;SDS011;30526;52.184;4.476;2023-04-24T02:38:11;4.70;;;1.48;;
44810;SDS011;30526;52.184;4.476;2023-04-24T02:40:37;11.23;;;1.67;;
44810;SDS011;30526;52.184;4.476;2023-04-24T02:43:03;3.63;;;1.48;;
44810;SDS011;30526;52.184;4.476;2023-04-24T02:45:29;5.20;;;1.35;;
44810;SDS011;30526;52.184;4.476;2023-04-24T02:47:55;6.57;;;1.77;;
44810;SDS011;30526;52.184;4.476;2023-04-24T02:50:21;11.70;;;2.15;;
44810;SDS011;30526;52.184;4.476;2023-04-24T02:52:47;7.00;;;1.98;;
44810;SDS011;30526;52.184;4.476;2023-04-24T02:55:13;6.10;;;1.65;;
44810;SDS011;30526;52.184;4.476;2023-04-24T02:57:39;7.20;;;1.65;;
44810;SDS011;30526;52.184;4.476;2023-04-24T03:00:05;7.38;;;2.22;;
44810;SDS011;30526;52.184;4.476;2023-04-24T03:02:32;11.50;;;2.30;;
44810;SDS011;30526;52.184;4.476;2023-04-24T03:04:58;8.63;;;1.77;;
44810;SDS011;30526;52.184;4.476;2023-04-24T03:07:25;11.27;;;2.30;;
44810;SDS011;30526;52.184;4.476;2023-04-24T03:09:51;18.15;;;2.70;;
44810;SDS011;30526;52.184;4.476;2023-04-24T03:12:17;6.40;;;1.90;;
44810;SDS011;30526;52.184;4.476;2023-04-24T03:14:43;11.40;;;2.17;;
44810;SDS011;30526;52.184;4.476;2023-04-24T03:17:09;7.47;;;2.20;;
44810;SDS011;30526;52.184;4.476;2023-04-24T03:19:35;7.20;;;2.55;;
44810;SDS011;30526;52.184;4.476;2023-04-24T03:22:02;9.85;;;2.30;;
44810;SDS011;30526;52.184;4.476;2023-04-24T03:24:28;7.00;;;2.45;;
44810;SDS011;30526;52.184;4.476;2023-04-24T03:26:54;10.43;;;2.47;;
44810;SDS011;30526;52.184;4.476;2023-04-24T03:31:47;4.68;;;1.65;;
44810;SDS011;30526;52.184;4.476;2023-04-24T03:34:13;8.40;;;1.70;;
44810;SDS011;30526;52.184;4.476;2023-04-24T03:36:39;6.32;;;1.27;;
44810;SDS011;30526;52.184;4.476;2023-04-24T03:39:05;6.28;;;1.50;;
44810;SDS011;30526;52.184;4.476;2023-04-24T03:41:32;2.35;;;0.95;;
44810;SDS011;30526;52.184;4.476;2023-04-24T03:43:58;4.45;;;0.80;;
44810;SDS011;30526;52.184;4.476;2023-04-24T03:46:24;2.95;;;0.63;;
44810;SDS011;30526;52.184;4.476;2023-04-24T03:48:50;2.60;;;0.60;;
44810;SDS011;30526;52.184;4.476;2023-04-24T03:51:16;4.03;;;0.60;;
44810;SDS011;30526;52.184;4.476;2023-04-24T03:53:42;10.13;;;1.00;;
44810;SDS011;30526;52.184;4.476;2023-04-24T03:56:08;9.60;;;1.00;;
44810;SDS011;30526;52.184;4.476;2023-04-24T03:58:34;4.60;;;0.40;;
44810;SDS011;30526;52.184;4.476;2023-04-24T04:01:00;1.73;;;0.70;;
44810;SDS011;30526;52.184;4.476;2023-04-24T04:03:26;6.28;;;0.73;;
44810;SDS011;30526;52.184;4.476;2023-04-24T04:05:52;2.08;;;0.43;;
44810;SDS011;30526;52.184;4.476;2023-04-24T04:08:19;2.20;;;0.50;;
44810;SDS011;30526;52.184;4.476;2023-04-24T04:10:48;5.05;;;0.50;;
44810;SDS011;30526;52.184;4.476;2023-04-24T04:13:14;1.02;;;0.50;;
44810;SDS011;30526;52.184;4.476;2023-04-24T04:15:40;1.73;;;0.88;;
44810;SDS011;30526;52.184;4.476;2023-04-24T04:18:06;5.80;;;1.10;;
44810;SDS011;30526;52.184;4.476;2023-04-24T04:20:33;3.38;;;0.80;;
44810;SDS011;30526;52.184;4.476;2023-04-24T04:22:59;11.63;;;1.60;;
44810;SDS011;30526;52.184;4.476;2023-04-24T04:25:25;14.88;;;2.72;;
44810;SDS011;30526;52.184;4.476;2023-04-24T04:27:51;18.77;;;3.75;;
44810;SDS011;30526;52.184;4.476;2023-04-24T04:30:18;14.05;;;3.28;;
44810;SDS011;30526;52.184;4.476;2023-04-24T04:32:45;25.73;;;4.28;;
44810;SDS011;30526;52.184;4.476;2023-04-24T04:35:12;27.85;;;7.28;;
44810;SDS011;30526;52.184;4.476;2023-04-24T04:37:38;35.13;;;7.68;;
44810;SDS011;30526;52.184;4.476;2023-04-24T04:40:05;30.35;;;6.63;;
44810;SDS011;30526;52.184;4.476;2023-04-24T04:42:31;23.40;;;6.40;;
44810;SDS011;30526;52.184;4.476;2023-04-24T04:44:59;32.05;;;8.13;;
44810;SDS011;30526;52.184;4.476;2023-04-24T04:47:25;33.47;;;6.93;;
44810;SDS011;30526;52.184;4.476;2023-04-24T04:49:53;29.13;;;7.10;;
44810;SDS011;30526;52.184;4.476;2023-04-24T04:52:19;34.85;;;8.20;;
44810;SDS011;30526;52.184;4.476;2023-04-24T04:54:49;38.40;;;8.55;;
44810;SDS011;30526;52.184;4.476;2023-04-24T04:57:15;43.53;;;10.30;;
44810;SDS011;30526;52.184;4.476;2023-04-24T04:59:41;42.15;;;11.52;;
44810;SDS011;30526;52.184;4.476;2023-04-24T05:02:08;45.25;;;14.70;;
44810;SDS011;30526;52.184;4.476;2023-04-24T05:04:34;52.28;;;14.98;;
44810;SDS011;30526;52.184;4.476;2023-04-24T05:07:00;48.45;;;17.92;;
44810;SDS011;30526;52.184;4.476;2023-04-24T05:09:26;60.80;;;19.20;;
44810;SDS011;30526;52.184;4.476;2023-04-24T05:11:54;64.10;;;19.63;;
44810;SDS011;30526;52.184;4.476;2023-04-24T05:14:20;74.90;;;23.52;;
44810;SDS011;30526;52.184;4.476;2023-04-24T05:16:46;75.67;;;18.10;;
44810;SDS011;30526;52.184;4.476;2023-04-24T05:19:13;81.60;;;23.17;;
44810;SDS011;30526;52.184;4.476;2023-04-24T05:21:40;54.03;;;16.33;;
44810;SDS011;30526;52.184;4.476;2023-04-24T05:24:06;40.33;;;13.73;;
44810;SDS011;30526;52.184;4.476;2023-04-24T05:26:32;60.17;;;17.27;;
44810;SDS011;30526;52.184;4.476;2023-04-24T05:28:58;49.30;;;15.60;;
44810;SDS011;30526;52.184;4.476;2023-04-24T05:31:25;41.60;;;11.13;;
44810;SDS011;30526;52.184;4.476;2023-04-24T05:33:51;54.47;;;15.88;;
44810;SDS011;30526;52.184;4.476;2023-04-24T05:36:21;56.83;;;15.85;;
44810;SDS011;30526;52.184;4.476;2023-04-24T05:38:47;40.63;;;15.80;;
44810;SDS011;30526;52.184;4.476;2023-04-24T05:41:13;60.22;;;16.13;;
44810;SDS011;30526;52.184;4.476;2023-04-24T05:43:39;46.70;;;11.85;;
44810;SDS011;30526;52.184;4.476;2023-04-24T05:46:05;49.38;;;15.15;;
44810;SDS011;30526;52.184;4.476;2023-04-24T05:48:31;53.00;;;14.10;;
44810;SDS011;30526;52.184;4.476;2023-04-24T05:50:57;43.15;;;15.15;;
44810;SDS011;30526;52.184;4.476;2023-04-24T05:53:24;37.45;;;13.43;;
44810;SDS011;30526;52.184;4.476;2023-04-24T05:55:50;43.33;;;13.75;;
44810;SDS011;30526;52.184;4.476;2023-04-24T05:58:16;53.83;;;14.15;;
44810;SDS011;30526;52.184;4.476;2023-04-24T06:00:42;55.78;;;12.13;;
44810;SDS011;30526;52.184;4.476;2023-04-24T06:03:08;50.75;;;12.13;;
44810;SDS011;30526;52.184;4.476;2023-04-24T06:05:34;44.33;;;11.00;;
44810;SDS011;30526;52.184;4.476;2023-04-24T06:08:00;43.58;;;11.45;;
44810;SDS011;30526;52.184;4.476;2023-04-24T06:10:26;39.28;;;11.10;;
44810;SDS011;30526;52.184;4.476;2023-04-24T06:12:52;50.05;;;11.30;;
44810;SDS011;30526;52.184;4.476;2023-04-24T06:15:21;41.80;;;10.18;;
44810;SDS011;30526;52.184;4.476;2023-04-24T06:17:47;45.13;;;9.90;;
44810;SDS011;30526;52.184;4.476;2023-04-24T06:20:13;50.50;;;11.48;;
44810;SDS011;30526;52.184;4.476;2023-04-24T06:22:39;40.35;;;10.32;;
44810;SDS011;30526;52.184;4.476;2023-04-24T06:25:05;49.50;;;9.93;;
44810;SDS011;30526;52.184;4.476;2023-04-24T06:27:32;32.63;;;7.10;;
44810;SDS011;30526;52.184;4.476;2023-04-24T06:29:58;33.50;;;8.93;;
44810;SDS011;30526;52.184;4.476;2023-04-24T06:32:24;53.95;;;10.48;;
44810;SDS011;30526;52.184;4.476;2023-04-24T06:34:51;40.42;;;9.18;;
44810;SDS011;30526;52.184;4.476;2023-04-24T06:37:18;30.23;;;8.55;;
44810;SDS011;30526;52.184;4.476;2023-04-24T06:42:11;42.15;;;6.93;;
44810;SDS011;30526;52.184;4.476;2023-04-24T06:44:37;37.05;;;8.38;;
44810;SDS011;30526;52.184;4.476;2023-04-24T06:47:11;34.47;;;7.38;;
44810;SDS011;30526;52.184;4.476;2023-04-24T06:49:38;29.45;;;6.90;;
44810;SDS011;30526;52.184;4.476;2023-04-24T06:52:05;44.45;;;6.97;;
44810;SDS011;30526;52.184;4.476;2023-04-24T06:54:31;25.67;;;4.88;;
44810;SDS011;30526;52.184;4.476;2023-04-24T06:56:57;49.50;;;6.75;;
44810;SDS011;30526;52.184;4.476;2023-04-24T06:59:25;40.78;;;5.97;;
44810;SDS011;30526;52.184;4.476;2023-04-24T07:01:51;41.97;;;6.35;;
44810;SDS011;30526;52.184;4.476;2023-04-24T07:04:17;33.38;;;6.30;;
44810;SDS011;30526;52.184;4.476;2023-04-24T07:06:44;33.08;;;6.03;;
44810;SDS011;30526;52.184;4.476;2023-04-24T07:11:38;31.80;;;6.22;;
44810;SDS011;30526;52.184;4.476;2023-04-24T07:14:05;28.92;;;4.60;;
44810;SDS011;30526;52.184;4.476;2023-04-24T07:16:31;28.23;;;5.22;;
44810;SDS011;30526;52.184;4.476;2023-04-24T07:18:57;29.77;;;5.35;;
44810;SDS011;30526;52.184;4.476;2023-04-24T07:21:23;41.45;;;5.22;;
44810;SDS011;30526;52.184;4.476;2023-04-24T07:23:50;20.90;;;3.35;;
44810;SDS011;30526;52.184;4.476;2023-04-24T07:26:16;20.27;;;4.22;;
44810;SDS011;30526;52.184;4.476;2023-04-24T07:28:42;21.27;;;4.47;;
44810;SDS011;30526;52.184;4.476;2023-04-24T07:31:08;28.17;;;4.65;;
44810;SDS011;30526;52.184;4.476;2023-04-24T07:33:34;39.00;;;5.72;;
44810;SDS011;30526;52.184;4.476;2023-04-24T07:36:01;25.98;;;4.57;;
44810;SDS011;30526;52.184;4.476;2023-04-24T07:38:29;29.35;;;4.70;;
44810;SDS011;30526;52.184;4.476;2023-04-24T07:40:55;23.55;;;3.67;;
44810;SDS011;30526;52.184;4.476;2023-04-24T07:43:21;21.63;;;3.15;;
44810;SDS011;30526;52.184;4.476;2023-04-24T07:45:48;25.85;;;4.35;;
44810;SDS011;30526;52.184;4.476;2023-04-24T07:48:14;21.88;;;4.53;;
44810;SDS011;30526;52.184;4.476;2023-04-24T07:50:41;24.77;;;4.77;;
44810;SDS011;30526;52.184;4.476;2023-04-24T07:53:07;21.15;;;3.75;;
44810;SDS011;30526;52.184;4.476;2023-04-24T07:55:33;22.02;;;3.75;;
44810;SDS011;30526;52.184;4.476;2023-04-24T07:57:59;23.13;;;4.45;;
44810;SDS011;30526;52.184;4.476;2023-04-24T08:00:25;22.63;;;3.85;;
44810;SDS011;30526;52.184;4.476;2023-04-24T08:02:52;18.23;;;3.30;;
44810;SDS011;30526;52.184;4.476;2023-04-24T08:05:18;22.80;;;3.70;;
44810;SDS011;30526;52.184;4.476;2023-04-24T08:07:45;18.98;;;3.63;;
44810;SDS011;30526;52.184;4.476;2023-04-24T08:10:13;18.02;;;3.53;;
44810;SDS011;30526;52.184;4.476;2023-04-24T08:12:39;10.18;;;2.97;;
44810;SDS011;30526;52.184;4.476;2023-04-24T08:15:06;22.60;;;2.88;;
44810;SDS011;30526;52.184;4.476;2023-04-24T08:17:32;12.50;;;2.72;;
44810;SDS011;30526;52.184;4.476;2023-04-24T08:19:58;17.17;;;3.00;;
44810;SDS011;30526;52.184;4.476;2023-04-24T08:22:26;14.10;;;2.50;;
44810;SDS011;30526;52.184;4.476;2023-04-24T08:24:53;13.68;;;2.50;;
44810;SDS011;30526;52.184;4.476;2023-04-24T08:27:19;11.77;;;2.35;;
44810;SDS011;30526;52.184;4.476;2023-04-24T08:29:45;13.15;;;2.65;;
44810;SDS011;30526;52.184;4.476;2023-04-24T08:32:11;13.40;;;2.33;;
44810;SDS011;30526;52.184;4.476;2023-04-24T08:34:37;8.75;;;2.30;;
44810;SDS011;30526;52.184;4.476;2023-04-24T08:37:03;8.35;;;2.38;;
44810;SDS011;30526;52.184;4.476;2023-04-24T08:39:29;12.57;;;2.72;;
44810;SDS011;30526;52.184;4.476;2023-04-24T08:41:55;7.32;;;2.30;;
44810;SDS011;30526;52.184;4.476;2023-04-24T08:44:22;8.90;;;1.73;;
44810;SDS011;30526;52.184;4.476;2023-04-24T08:46:48;9.23;;;1.98;;
44810;SDS011;30526;52.184;4.476;2023-04-24T08:49:15;13.65;;;1.80;;
44810;SDS011;30526;52.184;4.476;2023-04-24T08:51:41;14.68;;;1.83;;
44810;SDS011;30526;52.184;4.476;2023-04-24T08:54:07;7.28;;;1.90;;
44810;SDS011;30526;52.184;4.476;2023-04-24T08:56:34;11.20;;;1.80;;
44810;SDS011;30526;52.184;4.476;2023-04-24T08:59:05;7.78;;;1.45;;
44810;SDS011;30526;52.184;4.476;2023-04-24T09:01:32;11.57;;;1.50;;
44810;SDS011;30526;52.184;4.476;2023-04-24T09:04:00;9.25;;;1.80;;
44810;SDS011;30526;52.184;4.476;2023-04-24T09:06:27;9.10;;;1.48;;
44810;SDS011;30526;52.184;4.476;2023-04-24T09:08:53;7.90;;;1.67;;
44810;SDS011;30526;52.184;4.476;2023-04-24T09:11:21;9.85;;;1.45;;
44810;SDS011;30526;52.184;4.476;2023-04-24T09:13:49;9.20;;;1.52;;
44810;SDS011;30526;52.184;4.476;2023-04-24T09:16:15;4.60;;;1.25;;
44810;SDS011;30526;52.184;4.476;2023-04-24T09:18:42;4.35;;;1.30;;
44810;SDS011;30526;52.184;4.476;2023-04-24T09:21:08;9.93;;;1.33;;
44810;SDS011;30526;52.184;4.476;2023-04-24T09:23:35;7.57;;;1.27;;
44810;SDS011;30526;52.184;4.476;2023-04-24T09:26:01;8.50;;;1.30;;
44810;SDS011;30526;52.184;4.476;2023-04-24T09:28:31;4.90;;;0.98;;
44810;SDS011;30526;52.184;4.476;2023-04-24T09:31:07;6.43;;;1.42;;
44810;SDS011;30526;52.184;4.476;2023-04-24T09:33:34;6.22;;;1.02;;
44810;SDS011;30526;52.184;4.476;2023-04-24T09:36:00;12.02;;;1.38;;
44810;SDS011;30526;52.184;4.476;2023-04-24T09:38:36;7.82;;;1.13;;
44810;SDS011;30526;52.184;4.476;2023-04-24T09:41:04;7.75;;;1.48;;
44810;SDS011;30526;52.184;4.476;2023-04-24T09:43:30;11.35;;;1.63;;
44810;SDS011;30526;52.184;4.476;2023-04-24T09:45:57;8.67;;;1.10;;
44810;SDS011;30526;52.184;4.476;2023-04-24T09:48:33;7.07;;;1.10;;
44810;SDS011;30526;52.184;4.476;2023-04-24T09:51:00;3.33;;;0.83;;
44810;SDS011;30526;52.184;4.476;2023-04-24T09:53:29;8.05;;;1.00;;
44810;SDS011;30526;52.184;4.476;2023-04-24T09:55:55;5.63;;;1.40;;
44810;SDS011;30526;52.184;4.476;2023-04-24T09:58:25;4.20;;;0.88;;
44810;SDS011;30526;52.184;4.476;2023-04-24T10:00:55;6.43;;;1.67;;
44810;SDS011;30526;52.184;4.476;2023-04-24T10:03:24;6.93;;;1.20;;
44810;SDS011;30526;52.184;4.476;2023-04-24T10:05:51;4.18;;;1.17;;
44810;SDS011;30526;52.184;4.476;2023-04-24T10:08:17;8.32;;;1.33;;
44810;SDS011;30526;52.184;4.476;2023-04-24T10:10:45;5.28;;;0.93;;
44810;SDS011;30526;52.184;4.476;2023-04-24T10:13:12;5.60;;;0.80;;
44810;SDS011;30526;52.184;4.476;2023-04-24T10:15:40;1.98;;;0.80;;
44810;SDS011;30526;52.184;4.476;2023-04-24T10:18:06;8.45;;;1.08;;
44810;SDS011;30526;52.184;4.476;2023-04-24T10:20:35;10.65;;;1.48;;
44810;SDS011;30526;52.184;4.476;2023-04-24T10:23:02;7.75;;;1.23;;
44810;SDS011;30526;52.184;4.476;2023-04-24T10:25:33;10.73;;;1.53;;
44810;SDS011;30526;52.184;4.476;2023-04-24T10:28:00;8.23;;;1.95;;
44810;SDS011;30526;52.184;4.476;2023-04-24T10:30:27;7.03;;;1.05;;
44810;SDS011;30526;52.184;4.476;2023-04-24T10:32:53;8.90;;;1.00;;
44810;SDS011;30526;52.184;4.476;2023-04-24T10:35:19;7.45;;;1.95;;
44810;SDS011;30526;52.184;4.476;2023-04-24T10:38:06;9.88;;;1.27;;
44810;SDS011;30526;52.184;4.476;2023-04-24T10:40:34;8.15;;;1.58;;
44810;SDS011;30526;52.184;4.476;2023-04-24T10:43:04;6.75;;;1.27;;
44810;SDS011;30526;52.184;4.476;2023-04-24T10:45:35;12.15;;;1.27;;
44810;SDS011;30526;52.184;4.476;2023-04-24T10:48:03;9.80;;;1.75;;
44810;SDS011;30526;52.184;4.476;2023-04-24T10:56:08;7.70;;;1.02;;
44810;SDS011;30526;52.184;4.476;2023-04-24T10:58:42;9.70;;;1.25;;
44810;SDS011;30526;52.184;4.476;2023-04-24T11:01:22;11.68;;;1.60;;
44810;SDS011;30526;52.184;4.476;2023-04-24T11:03:55;10.85;;;1.83;;
44810;SDS011;30526;52.184;4.476;2023-04-24T11:06:35;7.57;;;1.25;;
44810;SDS011;30526;52.184;4.476;2023-04-24T11:09:10;5.50;;;1.10;;
44810;SDS011;30526;52.184;4.476;2023-04-24T11:11:38;12.30;;;1.80;;
44810;SDS011;30526;52.184;4.476;2023-04-24T11:14:10;10.75;;;1.73;;
44810;SDS011;30526;52.184;4.476;2023-04-24T11:16:51;14.63;;;1.60;;
44810;SDS011;30526;52.184;4.476;2023-04-24T11:19:18;11.10;;;1.80;;
44810;SDS011;30526;52.184;4.476;2023-04-24T11:24:27;9.77;;;1.48;;
44810;SDS011;30526;52.184;4.476;2023-04-24T11:32:14;6.10;;;1.50;;
44810;SDS011;30526;52.184;4.476;2023-04-24T11:34:45;11.35;;;1.60;;
44810;SDS011;30526;52.184;4.476;2023-04-24T11:37:11;12.93;;;1.92;;
44810;SDS011;30526;52.184;4.476;2023-04-24T11:39:38;10.98;;;2.17;;
44810;SDS011;30526;52.184;4.476;2023-04-24T11:42:04;13.93;;;2.08;;
44810;SDS011;30526;52.184;4.476;2023-04-24T11:44:32;11.68;;;2.38;;
44810;SDS011;30526;52.184;4.476;2023-04-24T11:46:59;11.65;;;2.33;;
44810;SDS011;30526;52.184;4.476;2023-04-24T11:49:25;11.70;;;2.53;;
44810;SDS011;30526;52.184;4.476;2023-04-24T11:51:54;17.48;;;3.47;;
44810;SDS011;30526;52.184;4.476;2023-04-24T11:54:20;13.73;;;1.92;;
44810;SDS011;30526;52.184;4.476;2023-04-24T11:56:47;14.48;;;2.75;;
44810;SDS011;30526;52.184;4.476;2023-04-24T11:59:13;10.27;;;2.63;;
44810;SDS011;30526;52.184;4.476;2023-04-24T12:01:45;14.48;;;3.15;;
44810;SDS011;30526;52.184;4.476;2023-04-24T12:04:12;17.15;;;3.85;;
44810;SDS011;30526;52.184;4.476;2023-04-24T12:06:38;18.15;;;3.13;;
44810;SDS011;30526;52.184;4.476;2023-04-24T12:09:04;14.23;;;2.92;;
44810;SDS011;30526;52.184;4.476;2023-04-24T12:11:31;14.10;;;2.45;;
44810;SDS011;30526;52.184;4.476;2023-04-24T12:13:57;20.80;;;3.47;;
44810;SDS011;30526;52.184;4.476;2023-04-24T12:16:23;17.70;;;3.08;;
44810;SDS011;30526;52.184;4.476;2023-04-24T12:18:51;11.43;;;2.60;;
44810;SDS011;30526;52.184;4.476;2023-04-24T12:21:18;8.90;;;2.42;;
44810;SDS011;30526;52.184;4.476;2023-04-24T12:23:45;12.40;;;2.83;;
44810;SDS011;30526;52.184;4.476;2023-04-24T12:26:12;12.82;;;2.88;;
44810;SDS011;30526;52.184;4.476;2023-04-24T12:28:38;18.08;;;2.75;;
44810;SDS011;30526;52.184;4.476;2023-04-24T12:31:05;13.48;;;3.38;;
44810;SDS011;30526;52.184;4.476;2023-04-24T12:33:34;16.55;;;2.72;;
44810;SDS011;30526;52.184;4.476;2023-04-24T12:36:01;10.23;;;2.70;;
44810;SDS011;30526;52.184;4.476;2023-04-24T12:38:28;14.48;;;3.00;;
44810;SDS011;30526;52.184;4.476;2023-04-24T12:41:02;12.00;;;2.30;;
44810;SDS011;30526;52.184;4.476;2023-04-24T12:43:29;8.55;;;2.70;;
44810;SDS011;30526;52.184;4.476;2023-04-24T12:45:55;13.68;;;2.78;;
44810;SDS011;30526;52.184;4.476;2023-04-24T12:48:22;15.25;;;2.90;;
44810;SDS011;30526;52.184;4.476;2023-04-24T12:50:48;12.85;;;2.83;;
44810;SDS011;30526;52.184;4.476;2023-04-24T12:53:14;12.77;;;2.83;;
44810;SDS011;30526;52.184;4.476;2023-04-24T12:55:41;12.55;;;2.78;;
44810;SDS011;30526;52.184;4.476;2023-04-24T12:58:07;11.45;;;2.72;;
44810;SDS011;30526;52.184;4.476;2023-04-24T13:00:33;11.90;;;2.80;;
44810;SDS011;30526;52.184;4.476;2023-04-24T13:02:59;16.60;;;2.63;;
44810;SDS011;30526;52.184;4.476;2023-04-24T13:05:25;11.57;;;2.85;;
44810;SDS011;30526;52.184;4.476;2023-04-24T13:07:51;16.23;;;2.50;;
44810;SDS011;30526;52.184;4.476;2023-04-24T13:10:17;12.15;;;3.03;;
44810;SDS011;30526;52.184;4.476;2023-04-24T13:12:44;12.57;;;2.97;;
44810;SDS011;30526;52.184;4.476;2023-04-24T13:15:11;8.98;;;2.53;;
44810;SDS011;30526;52.184;4.476;2023-04-24T13:17:37;14.93;;;2.97;;
44810;SDS011;30526;52.184;4.476;2023-04-24T13:20:03;10.73;;;2.85;;
44810;SDS011;30526;52.184;4.476;2023-04-24T13:22:29;14.65;;;2.90;;
44810;SDS011;30526;52.184;4.476;2023-04-24T13:24:55;16.10;;;3.58;;
44810;SDS011;30526;52.184;4.476;2023-04-24T13:27:22;17.83;;;3.10;;
44810;SDS011;30526;52.184;4.476;2023-04-24T13:29:48;9.30;;;2.78;;
44810;SDS011;30526;52.184;4.476;2023-04-24T13:32:14;15.98;;;3.42;;
44810;SDS011;30526;52.184;4.476;2023-04-24T13:34:40;14.40;;;3.30;;
44810;SDS011;30526;52.184;4.476;2023-04-24T13:37:06;21.30;;;4.57;;
44810;SDS011;30526;52.184;4.476;2023-04-24T13:39:33;8.63;;;2.57;;
44810;SDS011;30526;52.184;4.476;2023-04-24T13:41:59;21.67;;;4.10;;
44810;SDS011;30526;52.184;4.476;2023-04-24T13:44:25;24.40;;;3.60;;
44810;SDS011;30526;52.184;4.476;2023-04-24T13:46:53;9.10;;;2.53;;
44810;SDS011;30526;52.184;4.476;2023-04-24T13:49:21;11.30;;;3.00;;
44810;SDS011;30526;52.184;4.476;2023-04-24T13:51:49;15.20;;;3.50;;
44810;SDS011;30526;52.184;4.476;2023-04-24T13:54:15;13.35;;;3.70;;
44810;SDS011;30526;52.184;4.476;2023-04-24T13:56:41;19.55;;;3.20;;
44810;SDS011;30526;52.184;4.476;2023-04-24T13:59:07;20.45;;;3.63;;
44810;SDS011;30526;52.184;4.476;2023-04-24T14:01:34;17.80;;;4.20;;
44810;SDS011;30526;52.184;4.476;2023-04-24T14:04:00;17.30;;;3.55;;
44810;SDS011;30526;52.184;4.476;2023-04-24T14:06:26;17.20;;;3.38;;
44810;SDS011;30526;52.184;4.476;2023-04-24T14:08:52;11.10;;;2.85;;
44810;SDS011;30526;52.184;4.476;2023-04-24T14:11:18;12.60;;;2.65;;
44810;SDS011;30526;52.184;4.476;2023-04-24T14:13:45;12.93;;;3.20;;
44810;SDS011;30526;52.184;4.476;2023-04-24T14:16:11;10.60;;;2.00;;
44810;SDS011;30526;52.184;4.476;2023-04-24T14:18:37;12.88;;;3.30;;
44810;SDS011;30526;52.184;4.476;2023-04-24T14:21:04;14.57;;;3.63;;
44810;SDS011;30526;52.184;4.476;2023-04-24T14:23:30;15.87;;;3.17;;
44810;SDS011;30526;52.184;4.476;2023-04-24T14:25:59;15.57;;;3.65;;
44810;SDS011;30526;52.184;4.476;2023-04-24T14:28:25;19.67;;;4.05;;
44810;SDS011;30526;52.184;4.476;2023-04-24T14:30:51;17.27;;;3.58;;
44810;SDS011;30526;52.184;4.476;2023-04-24T14:33:17;20.63;;;4.68;;
44810;SDS011;30526;52.184;4.476;2023-04-24T14:35:43;21.20;;;3.60;;
44810;SDS011;30526;52.184;4.476;2023-04-24T14:38:10;15.02;;;4.13;;
44810;SDS011;30526;52.184;4.476;2023-04-24T14:40:36;8.20;;;2.20;;
44810;SDS011;30526;52.184;4.476;2023-04-24T14:43:03;13.13;;;2.92;;
44810;SDS011;30526;52.184;4.476;2023-04-24T14:45:29;9.90;;;3.30;;
44810;SDS011;30526;52.184;4.476;2023-04-24T14:47:55;14.63;;;3.58;;
44810;SDS011;30526;52.184;4.476;2023-04-24T14:50:21;14.23;;;3.30;;
44810;SDS011;30526;52.184;4.476;2023-04-24T14:52:47;14.27;;;3.60;;
44810;SDS011;30526;52.184;4.476;2023-04-24T14:55:13;10.63;;;2.65;;
44810;SDS011;30526;52.184;4.476;2023-04-24T14:57:39;16.33;;;3.30;;
44810;SDS011;30526;52.184;4.476;2023-04-24T15:00:06;12.65;;;3.03;;